Beta version 0.4

Airbus 330-200

№RA-AST21

Boeing 737-800 NG

№RA-ART04

Airbus 320-200

№RA-AST51

Airbus 320-200

№RA-AST50

Airbus 330-200

№RA-AST21

Airbus 330-200

№RA-AST21

Airbus 320-200

№RA-AST50

Туполев - 154М

№RA-AST25

  • Aerostream Network
  • Aerostream Network
  • Aerostream Network
  • Aerostream Network
  • Aerostream Network
  • Aerostream Network
  • Aerostream Network
  • Aerostream Network
Информация о пилоте

Информация не загружена.

Номер рейса Борт Аэропорт вылета Погодные условия вылета Эшелон Аэропорт прилёта Погодные условия прилёта Вертикальная скорость в момент касания Особенности полёта
ART3082738ULLI220800Z 31002MPS 9999 BKN006 OVC018 00/M01 Q1015 28////// 78610345 NOSIG RMK OBST OBSCFL331URRR220800Z 26008G13MPS 9999 BKN018 03/00 Q1019 NOSIG RMK SC070VS @ Touchdown: -313
ART3080738LOWI200250Z 26004KT 220V280 9999 FEW025 M07/M08 Q1018 R88/////// NOSIGFL331ULLI 220700Z 31002MPS 7000 -SN BKN008 BKN015 OVC066 M00/M01 Q1015 28////// 78610345 NOSIGVS @ Touchdown: -118
ART306738URSS210430Z 17005G10MPS 9999 BKN050CB OVC083 17/00 Q1012 WS RWY06 NOSIG RMK QFE758 06CLRD70FL282URRR210430Z 11005G08MPS 1500 R04/1500 BR OVC003 04/04 Q1011 TEMPO 0800 FG BKN002 RMK QBB110 4 SC045VS @ Touchdown: -89
ART305738URRR210300Z 08006G09MPS 4000 BR BKN004 BKN100 04/03 Q1010 TEMPO 0800 FG BKN002 RMK QBB120 4 SC070FL282URSS 210300Z 14007G12MPS 9999 FEW050CB OVC130 19/M03 Q1010 NOSIG RMK QFE757 06CLRD70 VS @ Touchdown: -172
ART303738URRR 200230Z 10008G11MPS 0200 R04/0600 FG VV002 03/03 Q1022 NOSIG RMK QBB070 4 SC043FL331LOWI200250Z 26004KT 220V280 9999 FEW025 M07/M08 Q1018 R88/////// NOSIGVS @ Touchdown: -148
ART308738ULLI150700Z 10006G12MPS 8000 SHRA SCT009 BKN019CB OVC050 05/03 Q1000 88290052 NOSIGFL331URRR150900Z 10006G09MPS 9999 OVC006 03/02 Q1027 TEMPO 09009G14MPS RMK QBB200 SCO70VS @ Touchdown: -138
ART307738URRR150200Z 10006G10MPS 7000 BKN005 02/01 Q1027 TEMPO 0800 FG BKN002 RMK QBB150 SCO70FL331ULLI150300Z 14006MPS 9999 BKN007 OVC066 04/02 Q1004 60290052 NOSIGVS @ Touchdown: -376 погода в питере при посадке была не очень заход был боком поэтому может посадка получилась не такая уж мягкая
ART306738URSS140930Z 00000MPS 9999 OVC300 13/02 Q1022 NOSIG RMK QFE765 06CLRD70FL282URRR140900Z 08005G08MPS 4000 BR OVC004 02/02 Q126 NOSIG RMK QBB140 4 SCO50VS @ Touchdown: -69
ART305738URRR140900Z 08005G08MPS 4000 BR OVC004 02/02 Q126 NOSIG RMK QBB140 4 SCO50FL282URSS140930Z 00000MPS 9999 OVC300 13/02 Q1022 NOSIG RMK QFE765 06CLRD70VS @ Touchdown: -219
ART311738URRR030300Z 06003MPS 9999 OVC009 M01/M03 Q1026 NOSIG RMK SC070FL331OMDB 030300Z 15003KT 130V190 CAVOK 17/13 Q1015 NOSIGVS @ Touchdown: -231
ART314738UNNT2370300Z 19005 MPS 2200 SN OVC033 M12/M14 Q1025 TEMPO 1000 SN RMK QFE759/1022FL331URRRVS @ Touchdown: -82
ART313738URRR200430Z 27005G 08MPS 7000 BKN014 FEWO33CB BKN100 01/M02 Q1019 NOSIG RMK SCO60FL348UNNT200730Z 23006MPS 9999 DRSN BKN100 M10/M14 Q1025 NOSIG RMK QFE758/1011 25810160VS @ Touchdown: -94
ATR302738UKBB1400300Z 23002MPS 5000 BR OVC030 00/M06 Q1032 88290048 NOSIGFL282URRR140300Z 01002MPS 9999 BKN025 OVC100 M02/M06 Q1033 NOSIG RMK SCO70VS @ Touchdown: -126
ART301738URRR140300Z 01002MPS 9999 BKN025 OVC100 M02/M06 Q1033 NOSIG RMK SCO70FL282UKBB1400300Z 23002MPS 5000 BR OVC030 00/M06 Q1032 88290048 NOSIGVS @ Touchdown: -318
ART3072738UUDDFL299URRRVS @ Touchdown: -89 за этот рейс произошло много интересного: 1.это то что я прилетел с топливом на нуле; 2.меня от шпиливилили что я летел не на том эшелоне который нужен; 3.первый раз общался с контролем
ART3071738EDDFFL330UUDDVS @ Touchdown: -209 красивый перелёт всё происходило рано утром на рассвете
ART311738URRRнормальныеFL305EDDFVS @ Touchdown: -35 приземление просто как 767 в Варшаве но только правда с шасси
art310738ULLIFL305URRRVS @ Touchdown: -151 первый за столько времени
AST1068738UUDD16083OZ 29005MPS 9999 SCT023 BKN100 03/M02 Q1030 32010095 82000195 NOSIGFL250URRR161030Z 05005G08MPS 9999 -SHRA BKN016 OVC100 Q1024 NOSIG RMK SC042VS @ Touchdown: -494 не очень хорошо приземлился
AST1067738EDDF16045 OZ 07008KT CAVOK 01/MOO Q1027 NOSIGFL305UUDD16083OZ 29005MPS 9999 SCT023 BKN100 03/M02 Q1030 32010095 82000195 NOSIGVS @ Touchdown: -127 почти мягкая посадка
UTC
Календарь событий
Статистика авиакомпании
Новые пилоты
Метеобрифинг
Для получения метара введите 4 буквы ICAO кода аэропорта и нажмите "Получить". Также можно ввести несколько аэропортов через пробел (Например: ULLI URRR @WY). Список аэропортов в этом файле, stations.txt.
     Одной строкой
 Расшифрованный

 METAR   
 TAF (прогноз)

 
Обратная связь

По всем вопросам обращайтесь по адресу inbox@http://aerostream-va.ru

Голосование
Rambler's Top100